Time;durP1;ratioP1;P1;durP2;ratioP2;P2;SDS_P1;SDS_P2;PMS_P1;PMS_P2;Temp;Humidity;BMP_temperature;BMP_pressure;BME280_temperature;BME280_humidity;BME280_pressure;Samples;Min_cycle;Max_cycle;Signal;HPM_P1;HPM_P2
2022/09/01 00:02:14;;;;;;;2.58;0.90;;;13.80;99.90;;;;;;5072414;28;20446;-71
2022/09/01 00:04:43;;;;;;;2.47;0.93;;;13.80;99.90;;;;;;5071340;28;20114;-71
2022/09/01 00:07:10;;;;;;;3.75;1.30;;;13.80;99.90;;;;;;5072341;28;20101;-70
2022/09/01 00:09:37;;;;;;;2.25;0.88;;;13.80;99.90;;;;;;5072712;28;20111;-71
2022/09/01 00:12:04;;;;;;;2.22;1.02;;;13.80;99.90;;;;;;5072189;28;20036;-70
2022/09/01 00:14:34;;;;;;;2.72;1.00;;;13.70;99.90;;;;;;5072525;28;20045;-70
2022/09/01 00:17:02;;;;;;;1.58;0.90;;;13.70;99.90;;;;;;5071864;28;20048;-71
2022/09/01 00:19:28;;;;;;;1.70;0.80;;;13.60;99.90;;;;;;5072094;28;20113;-70
2022/09/01 00:21:55;;;;;;;1.73;0.90;;;13.60;99.90;;;;;;5072532;28;20489;-71
2022/09/01 00:24:21;;;;;;;1.48;0.75;;;13.60;99.90;;;;;;5070081;28;20043;-70
2022/09/01 00:26:48;;;;;;;1.98;0.93;;;13.50;99.90;;;;;;5071306;28;20075;-70
2022/09/01 00:29:15;;;;;;;1.65;0.95;;;13.50;99.90;;;;;;5072272;28;20060;-70
2022/09/01 00:31:41;;;;;;;1.90;1.00;;;13.50;99.90;;;;;;5071148;28;20040;-70
2022/09/01 00:34:07;;;;;;;1.60;0.90;;;13.40;99.90;;;;;;5072348;28;20043;-70
2022/09/01 00:36:33;;;;;;;1.58;0.90;;;13.40;99.90;;;;;;5072083;28;20046;-70
2022/09/01 00:38:59;;;;;;;1.73;0.80;;;13.40;99.90;;;;;;5070907;28;20037;-70
2022/09/01 00:41:28;;;;;;;1.83;0.75;;;13.40;99.90;;;;;;5070701;28;20047;-70
2022/09/01 00:44:00;;;;;;;1.95;0.88;;;13.40;99.90;;;;;;5071691;28;20490;-70
2022/09/01 00:46:31;;;;;;;2.03;1.00;;;13.30;99.90;;;;;;5070906;28;20046;-70
2022/09/01 00:49:06;;;;;;;1.45;0.85;;;13.30;99.90;;;;;;5070940;28;20524;-70
2022/09/01 00:51:34;;;;;;;2.70;1.07;;;13.20;99.90;;;;;;5071660;28;20393;-71
2022/09/01 00:54:01;;;;;;;1.73;1.00;;;13.30;99.90;;;;;;5071658;28;20381;-71
2022/09/01 00:56:29;;;;;;;2.60;1.08;;;13.20;99.90;;;;;;5072087;28;20080;-70
2022/09/01 00:58:55;;;;;;;1.90;0.95;;;13.20;99.90;;;;;;5071366;28;20083;-70
2022/09/01 01:01:22;;;;;;;2.70;1.00;;;13.10;99.90;;;;;;5070173;28;20453;-70
2022/09/01 01:03:47;;;;;;;1.88;0.90;;;13.10;99.90;;;;;;5071536;28;20495;-71
2022/09/01 01:06:15;;;;;;;1.58;0.80;;;13.10;99.90;;;;;;5070508;28;20123;-71
2022/09/01 01:08:56;;;;;;;1.35;0.80;;;13.10;99.90;;;;;;5071107;28;20389;-70
2022/09/01 01:11:24;;;;;;;1.80;0.85;;;13.00;99.90;;;;;;5071746;28;20098;-71
2022/09/01 01:14:11;;;;;;;1.92;1.00;;;13.00;99.90;;;;;;5070853;28;20072;-70
2022/09/01 01:16:43;;;;;;;1.40;0.88;;;13.00;99.90;;;;;;5070403;28;20373;-71
2022/09/01 01:25:21;;;;;;;2.17;1.15;;;12.80;99.90;;;;;;5070131;28;20670;-70
2022/09/01 01:27:47;;;;;;;2.40;1.00;;;12.80;99.90;;;;;;5070384;28;20115;-70
2022/09/01 01:30:16;;;;;;;1.70;1.10;;;12.80;99.90;;;;;;5070195;28;20059;-70
2022/09/01 01:32:44;;;;;;;1.52;0.90;;;12.80;99.90;;;;;;5070243;28;20049;-71
2022/09/01 01:35:13;;;;;;;1.98;0.95;;;12.80;99.90;;;;;;5053340;28;20040;-71
2022/09/01 01:37:43;;;;;;;2.38;1.00;;;12.90;99.90;;;;;;5078877;28;20044;-72
2022/09/01 01:40:14;;;;;;;2.22;1.02;;;12.80;99.90;;;;;;5070411;28;20051;-70
2022/09/01 01:42:46;;;;;;;2.15;0.98;;;12.80;99.90;;;;;;5070429;28;20041;-70
2022/09/01 01:45:16;;;;;;;2.92;1.20;;;12.80;99.90;;;;;;5071249;28;20040;-70
2022/09/01 01:47:46;;;;;;;1.67;0.98;;;12.80;99.90;;;;;;5070826;28;20481;-71
2022/09/01 01:50:13;;;;;;;1.77;0.93;;;12.80;99.90;;;;;;5069462;28;20408;-70
2022/09/01 01:52:40;;;;;;;2.72;1.08;;;12.70;99.90;;;;;;5069863;28;20084;-70
2022/09/01 01:55:11;;;;;;;1.50;1.02;;;12.70;99.90;;;;;;5070575;28;20053;-70
2022/09/01 01:57:47;;;;;;;1.38;0.80;;;12.70;99.90;;;;;;5071128;28;20155;-69
2022/09/01 02:00:18;;;;;;;2.47;0.98;;;12.60;99.90;;;;;;5069959;28;20539;-70
2022/09/01 02:02:51;;;;;;;2.20;1.02;;;12.70;99.90;;;;;;5070915;28;20040;-70
2022/09/01 02:05:23;;;;;;;2.40;1.13;;;12.70;99.90;;;;;;5069882;28;20506;-71
2022/09/01 02:07:54;;;;;;;1.77;0.88;;;12.60;99.90;;;;;;5071827;28;20050;-71
2022/09/01 02:10:27;;;;;;;2.22;1.10;;;12.60;99.90;;;;;;5069693;28;20049;-71
2022/09/01 02:12:53;;;;;;;1.58;1.00;;;12.60;99.90;;;;;;5069339;28;20101;-71
2022/09/01 02:15:19;;;;;;;2.35;1.17;;;12.60;99.90;;;;;;5070823;28;20044;-71
2022/09/01 02:17:45;;;;;;;1.77;0.93;;;12.60;99.90;;;;;;5070601;28;20044;-70
2022/09/01 02:20:15;;;;;;;1.98;1.15;;;12.60;99.90;;;;;;5069349;28;20045;-71
2022/09/01 02:22:42;;;;;;;2.88;1.00;;;12.60;99.90;;;;;;5070909;28;20049;-71
2022/09/01 02:25:09;;;;;;;2.20;0.95;;;12.60;99.90;;;;;;5068497;28;20056;-71
2022/09/01 02:27:38;;;;;;;1.70;1.00;;;12.60;99.90;;;;;;5070034;28;20052;-71
2022/09/01 02:30:11;;;;;;;1.52;0.93;;;12.60;99.90;;;;;;5070267;28;20037;-70
2022/09/01 02:32:37;;;;;;;2.80;1.30;;;12.60;99.90;;;;;;5068993;28;20086;-71
2022/09/01 02:35:08;;;;;;;2.67;1.10;;;12.60;99.90;;;;;;5070822;28;20041;-71
2022/09/01 02:37:38;;;;;;;1.55;1.00;;;12.60;99.90;;;;;;5069532;28;20040;-70
2022/09/01 02:40:08;;;;;;;2.03;1.10;;;12.60;99.90;;;;;;5070249;28;20036;-71
2022/09/01 02:42:39;;;;;;;2.42;1.20;;;12.60;99.90;;;;;;5069933;28;20077;-71
2022/09/01 02:45:10;;;;;;;1.85;1.10;;;12.60;99.90;;;;;;5069909;28;20041;-71
2022/09/01 02:47:40;;;;;;;1.52;0.93;;;12.60;99.90;;;;;;5073283;28;20056;-71
2022/09/01 02:50:12;;;;;;;1.63;1.00;;;12.60;99.90;;;;;;5072533;28;20036;-71
2022/09/01 02:52:39;;;;;;;2.22;1.20;;;12.50;99.90;;;;;;5074354;28;20052;-71
2022/09/01 02:55:06;;;;;;;3.15;1.27;;;12.50;99.90;;;;;;5072495;28;20056;-70
2022/09/01 02:57:34;;;;;;;2.30;1.20;;;12.50;99.90;;;;;;5072753;28;20106;-71
2022/09/01 03:00:00;;;;;;;1.77;1.10;;;12.50;99.90;;;;;;5072943;28;20040;-71
2022/09/01 03:02:27;;;;;;;2.72;1.20;;;12.50;99.90;;;;;;5073945;28;20040;-71
2022/09/01 03:04:54;;;;;;;2.28;0.90;;;12.50;99.90;;;;;;5072959;28;20044;-71
2022/09/01 03:07:24;;;;;;;2.85;1.00;;;12.50;99.90;;;;;;5072961;28;20044;-71
2022/09/01 03:09:51;;;;;;;2.10;1.23;;;12.50;99.90;;;;;;5073033;28;20433;-70
2022/09/01 03:12:18;;;;;;;1.63;0.98;;;12.50;99.90;;;;;;5071184;28;20093;-71
2022/09/01 03:14:44;;;;;;;1.98;1.20;;;12.40;99.90;;;;;;5073619;28;20056;-70
2022/09/01 03:17:10;;;;;;;2.50;1.23;;;12.40;99.90;;;;;;5073474;28;20045;-70
2022/09/01 03:19:40;;;;;;;2.85;1.10;;;12.40;99.90;;;;;;5072158;28;20443;-71
2022/09/01 03:22:06;;;;;;;1.88;1.00;;;12.40;99.90;;;;;;5073767;28;20071;-72
2022/09/01 03:24:32;;;;;;;2.75;1.00;;;12.40;99.90;;;;;;5073668;28;20476;-71
2022/09/01 03:26:57;;;;;;;2.90;1.10;;;12.40;99.90;;;;;;5073466;28;20370;-72
2022/09/01 03:29:23;;;;;;;2.20;1.30;;;12.40;99.90;;;;;;5072299;28;20093;-71
2022/09/01 03:31:49;;;;;;;1.80;1.17;;;12.30;99.90;;;;;;5072774;28;20465;-71
2022/09/01 03:34:19;;;;;;;1.92;1.08;;;12.30;99.90;;;;;;5071684;28;20048;-71
2022/09/01 03:36:49;;;;;;;1.90;1.20;;;12.30;99.90;;;;;;5069925;28;20400;-72
2022/09/01 03:39:16;;;;;;;1.80;1.00;;;12.30;99.90;;;;;;5069961;28;20048;-71
2022/09/01 03:41:43;;;;;;;1.52;1.02;;;12.30;99.90;;;;;;5071925;28;20040;-71
2022/09/01 03:44:10;;;;;;;2.33;1.00;;;12.30;99.90;;;;;;5072956;28;20118;-71
2022/09/01 03:46:36;;;;;;;3.15;1.35;;;12.30;99.90;;;;;;5072081;28;20044;-71
2022/09/01 03:49:06;;;;;;;3.75;1.10;;;12.40;99.90;;;;;;5073228;28;20041;-71
2022/09/01 03:51:31;;;;;;;2.20;1.10;;;12.40;99.90;;;;;;5073116;28;20374;-71
2022/09/01 03:53:58;;;;;;;2.03;1.10;;;12.40;99.90;;;;;;5072924;28;20055;-71
2022/09/01 03:56:26;;;;;;;3.78;1.23;;;12.40;99.90;;;;;;5073252;28;20056;-72
2022/09/01 03:58:55;;;;;;;3.00;1.25;;;12.40;99.90;;;;;;5072465;28;20141;-71
2022/09/01 04:01:21;;;;;;;2.10;1.40;;;12.40;99.90;;;;;;5072386;28;20497;-71
2022/09/01 04:03:47;;;;;;;2.22;1.10;;;12.40;99.90;;;;;;5072844;28;20125;-71
2022/09/01 04:06:14;;;;;;;2.40;1.30;;;12.40;99.90;;;;;;5073105;28;20059;-71
2022/09/01 04:08:41;;;;;;;2.47;1.35;;;12.40;99.90;;;;;;5072567;28;20040;-71
2022/09/01 04:11:15;;;;;;;2.97;1.33;;;12.40;99.90;;;;;;5071778;28;20443;-72
2022/09/01 04:13:41;;;;;;;1.80;1.23;;;12.40;99.90;;;;;;5071499;28;20051;-71
2022/09/01 04:19:14;;;;;;;;;;;12.40;99.90;;;;;;5073024;28;20043;-71
2022/09/01 04:21:43;;;;;;;3.60;1.13;;;12.40;99.90;;;;;;5070453;28;19923;-72
2022/09/01 04:24:11;;;;;;;2.10;1.30;;;12.40;99.90;;;;;;5071549;28;20059;-71
2022/09/01 04:26:37;;;;;;;3.15;1.27;;;12.40;99.90;;;;;;5070360;28;20036;-72
2022/09/01 04:29:02;;;;;;;2.55;1.40;;;12.40;99.90;;;;;;5072435;28;20036;-71
2022/09/01 04:31:30;;;;;;;2.42;1.55;;;12.40;99.90;;;;;;5071251;28;20194;-71
2022/09/01 04:33:57;;;;;;;2.72;1.35;;;12.50;99.90;;;;;;5052448;28;20048;-72
2022/09/01 04:36:31;;;;;;;2.10;1.40;;;12.50;99.90;;;;;;5071178;28;20056;-71
2022/09/01 04:38:59;;;;;;;2.80;1.40;;;12.50;99.90;;;;;;5072575;28;20377;-71
2022/09/01 04:41:30;;;;;;;2.30;1.23;;;12.50;99.90;;;;;;5070519;28;20056;-71
2022/09/01 04:43:58;;;;;;;2.10;1.20;;;12.40;99.90;;;;;;5070733;28;20119;-71
2022/09/01 04:46:27;;;;;;;3.03;1.10;;;12.50;99.90;;;;;;5071736;28;20063;-71
2022/09/01 04:48:54;;;;;;;2.15;1.50;;;12.50;99.90;;;;;;5072073;28;20052;-71
2022/09/01 04:51:21;;;;;;;1.90;1.17;;;12.50;99.90;;;;;;5070327;28;20076;-71
2022/09/01 04:53:49;;;;;;;2.15;1.70;;;12.50;99.90;;;;;;5071590;28;20068;-71
2022/09/01 04:56:18;;;;;;;2.50;1.25;;;12.50;99.90;;;;;;5070828;28;20044;-71
2022/09/01 04:58:45;;;;;;;3.15;1.40;;;12.40;99.90;;;;;;5071369;28;20579;-72
2022/09/01 05:01:22;;;;;;;3.20;1.35;;;12.40;99.90;;;;;;5071337;28;20427;-71
2022/09/01 05:03:55;;;;;;;2.05;1.25;;;12.40;99.90;;;;;;5071733;28;20045;-71
2022/09/01 05:06:21;;;;;;;3.03;1.35;;;12.40;99.90;;;;;;5070353;28;20044;-71
2022/09/01 05:08:47;;;;;;;1.75;1.13;;;12.40;99.90;;;;;;5071147;28;20040;-71
2022/09/01 05:11:16;;;;;;;2.85;1.35;;;12.30;99.90;;;;;;5071476;28;20041;-71
2022/09/01 05:13:48;;;;;;;2.10;1.20;;;12.30;99.90;;;;;;5069798;28;20040;-70
2022/09/01 05:16:20;;;;;;;2.22;1.30;;;12.30;99.90;;;;;;5070347;28;20052;-70
2022/09/01 05:18:48;;;;;;;2.17;1.30;;;12.30;99.90;;;;;;5080966;28;20056;-71
2022/09/01 05:21:16;;;;;;;2.05;1.25;;;12.30;99.90;;;;;;5070235;28;20048;-71
2022/09/01 05:23:45;;;;;;;2.10;1.30;;;12.30;99.90;;;;;;5070245;28;20055;-70
2022/09/01 05:26:17;;;;;;;2.72;1.33;;;12.40;99.90;;;;;;5071162;28;20336;-70
2022/09/01 05:28:47;;;;;;;2.67;1.10;;;12.40;99.90;;;;;;5069938;28;20109;-71
2022/09/01 05:31:13;;;;;;;2.58;1.48;;;12.50;99.90;;;;;;5070140;28;20052;-71
2022/09/01 05:33:44;;;;;;;2.10;1.23;;;12.50;99.90;;;;;;5070276;28;20048;-70
2022/09/01 05:36:13;;;;;;;2.33;1.27;;;12.50;99.90;;;;;;5071151;28;20045;-70
2022/09/01 05:38:41;;;;;;;2.20;1.30;;;12.60;99.90;;;;;;5069863;28;20241;-71
2022/09/01 05:41:09;;;;;;;2.20;1.30;;;12.60;99.90;;;;;;5070096;28;20040;-71
2022/09/01 05:43:36;;;;;;;2.10;1.33;;;12.70;99.90;;;;;;5070716;28;20411;-71
2022/09/01 05:46:07;;;;;;;2.50;1.50;;;12.70;99.90;;;;;;5071099;28;20040;-71
2022/09/01 05:48:38;;;;;;;2.28;1.50;;;12.80;99.90;;;;;;5070319;28;20421;-71
2022/09/01 05:51:09;;;;;;;2.10;1.50;;;12.80;99.90;;;;;;5067741;28;21038;-71
2022/09/01 05:53:35;;;;;;;1.90;1.20;;;12.80;99.90;;;;;;5071201;28;20073;-71
2022/09/01 05:56:06;;;;;;;2.45;1.40;;;12.90;99.90;;;;;;5069507;28;20509;-71
2022/09/01 05:58:33;;;;;;;3.05;1.25;;;13.00;99.90;;;;;;5069895;28;20385;-71
2022/09/01 06:01:00;;;;;;;2.63;1.40;;;13.10;99.90;;;;;;5069695;28;20430;-71
2022/09/01 06:03:26;;;;;;;2.00;1.35;;;13.20;99.90;;;;;;5066091;28;20055;-71
2022/09/01 06:05:53;;;;;;;3.45;1.48;;;13.40;99.90;;;;;;5070743;28;20040;-71
2022/09/01 06:08:22;;;;;;;2.50;1.20;;;13.40;99.90;;;;;;5069851;28;20060;-64
2022/09/01 06:10:49;;;;;;;3.80;1.40;;;13.50;99.90;;;;;;5071126;28;20094;-64
2022/09/01 06:13:16;;;;;;;2.13;1.70;;;13.60;99.90;;;;;;5068386;28;20049;-64
2022/09/01 06:15:43;;;;;;;2.83;1.80;;;13.70;99.90;;;;;;5069108;28;20044;-64
2022/09/01 06:18:11;;;;;;;2.20;1.30;;;13.90;99.90;;;;;;5067916;28;20037;-64
2022/09/01 06:20:45;;;;;;;2.00;1.25;;;13.90;99.90;;;;;;5071474;28;20037;-64
2022/09/01 06:23:16;;;;;;;3.60;1.90;;;14.00;99.90;;;;;;5072326;28;20091;-64
2022/09/01 06:25:45;;;;;;;2.35;1.50;;;14.10;99.90;;;;;;5074322;28;20050;-65
2022/09/01 06:28:13;;;;;;;2.53;1.40;;;14.20;99.90;;;;;;5073743;28;20072;-64
2022/09/01 06:30:39;;;;;;;2.38;1.55;;;14.30;99.90;;;;;;5074432;28;20063;-64
2022/09/01 06:33:08;;;;;;;2.67;1.52;;;14.40;99.90;;;;;;5074481;28;20119;-64
2022/09/01 06:35:35;;;;;;;2.22;1.40;;;14.50;99.90;;;;;;5074455;28;20045;-65
2022/09/01 06:38:01;;;;;;;2.67;1.45;;;14.50;99.90;;;;;;5072120;28;20037;-64
2022/09/01 06:40:27;;;;;;;3.88;2.08;;;14.60;99.90;;;;;;5072966;28;20052;-65
2022/09/01 06:42:53;;;;;;;2.67;1.45;;;14.60;99.90;;;;;;5065455;28;20149;-65
2022/09/01 06:45:22;;;;;;;2.75;1.50;;;14.70;99.90;;;;;;5056616;28;20123;-65
2022/09/01 06:47:50;;;;;;;2.40;1.50;;;14.80;99.90;;;;;;5073042;28;20040;-65
2022/09/01 06:50:20;;;;;;;2.83;1.40;;;14.90;99.90;;;;;;5074208;28;20059;-64
2022/09/01 06:52:48;;;;;;;2.55;1.40;;;15.00;99.90;;;;;;5073005;28;20097;-64
2022/09/01 06:55:15;;;;;;;2.38;1.50;;;15.20;99.90;;;;;;5072718;28;20052;-64
2022/09/01 06:57:47;;;;;;;2.65;1.48;;;15.30;99.90;;;;;;5073923;28;20074;-63
2022/09/01 07:00:19;;;;;;;2.45;1.20;;;15.40;99.90;;;;;;5073839;28;20052;-64
2022/09/01 07:02:47;;;;;;;2.58;1.40;;;15.50;99.90;;;;;;5073986;28;20052;-64
2022/09/01 07:05:20;;;;;;;2.65;1.50;;;15.60;99.90;;;;;;5072536;28;20036;-64
2022/09/01 07:07:49;;;;;;;2.20;1.40;;;15.70;99.90;;;;;;5073819;28;20392;-64
2022/09/01 07:10:21;;;;;;;2.20;1.33;;;15.90;99.90;;;;;;5073836;28;20052;-64
2022/09/01 07:12:48;;;;;;;2.75;1.30;;;16.00;99.90;;;;;;5071330;28;20044;-65
2022/09/01 07:15:14;;;;;;;2.40;1.30;;;16.10;99.90;;;;;;5065899;28;20037;-65
2022/09/01 07:17:41;;;;;;;2.25;1.30;;;16.20;99.90;;;;;;5072411;28;20041;-65
2022/09/01 07:20:10;;;;;;;2.58;1.30;;;16.30;99.90;;;;;;5060968;28;20490;-65
2022/09/01 07:22:36;;;;;;;2.63;1.52;;;16.40;99.90;;;;;;5059881;28;20044;-65
2022/09/01 07:25:01;;;;;;;2.42;1.30;;;16.50;99.90;;;;;;5066291;28;20051;-65
2022/09/01 07:27:27;;;;;;;1.85;1.20;;;16.70;99.90;;;;;;5068689;28;20520;-65
2022/09/01 07:29:55;;;;;;;2.53;1.20;;;16.80;99.90;;;;;;5055422;28;20099;-65
2022/09/01 07:32:21;;;;;;;2.35;1.10;;;16.90;99.90;;;;;;5060600;28;20040;-65
2022/09/01 07:34:46;;;;;;;2.17;1.30;;;17.00;99.90;;;;;;5062829;28;20359;-65
2022/09/01 07:37:12;;;;;;;2.03;1.30;;;17.10;99.90;;;;;;5061945;28;20032;-65
2022/09/01 07:39:45;;;;;;;1.90;1.08;;;17.10;99.90;;;;;;5052812;28;20041;-66
2022/09/01 07:42:10;;;;;;;2.25;1.20;;;17.20;99.90;;;;;;5068426;28;20462;-65
2022/09/01 07:44:37;;;;;;;3.45;1.20;;;17.30;99.90;;;;;;5052263;28;20362;-66
2022/09/01 07:47:07;;;;;;;2.72;1.05;;;17.40;99.90;;;;;;5060017;28;20048;-66
2022/09/01 07:49:33;;;;;;;1.83;0.95;;;17.50;99.90;;;;;;5067209;28;20063;-64
2022/09/01 07:52:02;;;;;;;1.50;0.93;;;17.60;99.90;;;;;;5070335;28;20142;-65
2022/09/01 07:54:29;;;;;;;1.60;1.10;;;17.70;99.90;;;;;;5068751;28;20497;-65
2022/09/01 07:56:54;;;;;;;2.67;1.02;;;17.70;99.90;;;;;;5069781;28;20055;-64
2022/09/01 07:59:20;;;;;;;2.53;1.25;;;17.80;99.90;;;;;;5068671;28;20036;-65
2022/09/01 08:01:46;;;;;;;3.42;1.20;;;17.90;99.90;;;;;;5063502;28;20043;-66
2022/09/01 08:04:12;;;;;;;2.10;1.00;;;18.10;99.90;;;;;;5052095;28;20388;-65
2022/09/01 08:06:38;;;;;;;2.28;1.00;;;18.10;99.90;;;;;;5059329;28;20584;-65
2022/09/01 08:09:07;;;;;;;2.33;1.15;;;18.20;99.90;;;;;;5065728;28;20045;-64
2022/09/01 08:11:32;;;;;;;1.92;0.90;;;18.30;99.90;;;;;;5057956;28;20045;-64
2022/09/01 08:13:59;;;;;;;2.33;1.00;;;18.40;99.90;;;;;;5055191;28;20047;-64
2022/09/01 08:16:30;;;;;;;2.50;0.98;;;18.50;99.90;;;;;;5053089;28;20120;-64
2022/09/01 08:18:56;;;;;;;1.63;0.80;;;18.60;99.90;;;;;;5077156;28;20554;-63
2022/09/01 08:21:23;;;;;;;2.33;1.00;;;18.80;99.90;;;;;;5054940;28;20079;-64
2022/09/01 08:23:51;;;;;;;2.42;1.00;;;18.90;99.90;;;;;;5052499;28;20055;-63
2022/09/01 08:26:21;;;;;;;1.50;0.80;;;19.00;99.90;;;;;;5069078;28;20041;-63
2022/09/01 08:28:47;;;;;;;1.17;0.77;;;19.10;99.90;;;;;;5059197;28;20037;-63
2022/09/01 08:31:14;;;;;;;1.88;1.00;;;19.20;99.90;;;;;;5053616;28;20142;-63
2022/09/01 08:33:41;;;;;;;1.90;0.93;;;19.20;99.90;;;;;;5070850;28;20396;-64
2022/09/01 08:36:09;;;;;;;1.55;0.70;;;19.40;99.90;;;;;;5056653;28;20377;-63
2022/09/01 08:38:35;;;;;;;1.67;0.60;;;19.50;99.90;;;;;;5051572;28;20149;-67
2022/09/01 08:41:04;;;;;;;1.58;0.80;;;19.60;99.90;;;;;;5056412;28;20039;-65
2022/09/01 08:43:41;;;;;;;1.58;0.50;;;19.70;99.90;;;;;;5053999;28;20607;-65
2022/09/01 08:46:18;;;;;;;1.67;0.65;;;19.70;99.90;;;;;;5057380;28;20481;-64
2022/09/01 08:48:51;;;;;;;1.10;0.60;;;19.90;99.90;;;;;;5053095;28;20041;-65
2022/09/01 08:51:35;;;;;;;1.63;0.70;;;20.10;99.90;;;;;;5051617;28;20539;-64
2022/09/01 08:54:13;;;;;;;1.70;0.85;;;20.20;99.90;;;;;;5059094;28;20053;-64
2022/09/01 08:56:39;;;;;;;1.58;0.70;;;20.30;99.90;;;;;;5053481;28;20121;-62
2022/09/01 08:59:08;;;;;;;1.95;0.77;;;20.30;99.90;;;;;;5059513;28;20052;-64
2022/09/01 09:02:04;;;;;;;2.28;0.63;;;20.30;99.90;;;;;;5060483;28;20082;-62
2022/09/01 09:04:33;;;;;;;1.20;0.50;;;20.40;99.90;;;;;;5061362;28;20481;-64
2022/09/01 09:07:07;;;;;;;1.40;0.70;;;20.60;99.90;;;;;;5051296;28;20147;-63
2022/09/01 09:10:00;;;;;;;1.38;0.63;;;20.70;99.90;;;;;;5062680;28;20040;-63
2022/09/01 09:12:37;;;;;;;1.30;0.60;;;20.70;99.90;;;;;;5054971;28;20083;-63
2022/09/01 09:15:30;;;;;;;1.25;0.55;;;20.80;99.90;;;;;;5059120;28;20041;-63
2022/09/01 09:18:16;;;;;;;1.10;0.45;;;21.00;99.90;;;;;;5059367;28;20036;-63
2022/09/01 09:20:43;;;;;;;1.17;0.50;;;21.10;99.90;;;;;;5059310;28;20125;-64
2022/09/01 09:23:23;;;;;;;2.47;0.88;;;21.20;99.90;;;;;;5053310;28;20045;-64
2022/09/01 09:25:49;;;;;;;1.00;0.60;;;21.30;99.90;;;;;;5056042;28;20476;-64
2022/09/01 09:28:15;;;;;;;3.50;0.50;;;21.40;99.90;;;;;;5052596;28;20060;-64
2022/09/01 09:30:41;;;;;;;0.95;0.40;;;21.50;99.90;;;;;;5056494;28;20043;-64
2022/09/01 09:33:09;;;;;;;2.47;0.40;;;21.70;99.90;;;;;;5053815;28;20036;-64
2022/09/01 09:35:37;;;;;;;1.10;0.50;;;21.80;99.90;;;;;;5061627;28;20544;-64
2022/09/01 09:38:18;;;;;;;0.73;0.50;;;22.00;99.90;;;;;;5050933;28;20102;-64
2022/09/01 09:41:15;;;;;;;1.55;0.52;;;22.10;99.90;;;;;;5069830;28;20358;-64
2022/09/01 09:43:50;;;;;;;1.90;0.63;;;22.10;99.90;;;;;;5071015;28;20412;-64
2022/09/01 09:46:19;;;;;;;1.33;0.45;;;22.20;99.90;;;;;;5070905;28;20110;-62
2022/09/01 09:48:45;;;;;;;2.00;0.50;;;22.20;99.90;;;;;;5067221;28;20114;-64
2022/09/01 09:51:20;;;;;;;2.25;0.50;;;22.20;99.90;;;;;;5060728;28;20474;-64
2022/09/01 09:53:46;;;;;;;1.05;0.50;;;22.20;99.90;;;;;;5062606;28;20040;-63
2022/09/01 09:56:24;;;;;;;1.13;0.40;;;22.30;99.90;;;;;;5069732;28;20056;-64
2022/09/01 09:58:52;;;;;;;2.40;0.50;;;22.30;99.90;;;;;;5070174;28;20040;-63
2022/09/01 10:01:24;;;;;;;1.42;0.60;;;22.40;99.90;;;;;;5069643;28;20056;-64
2022/09/01 10:03:51;;;;;;;1.92;0.70;;;22.50;99.90;;;;;;5069403;28;20048;-64
2022/09/01 10:06:37;;;;;;;1.77;0.52;;;22.50;99.90;;;;;;5069445;28;20078;-64
2022/09/01 10:09:13;;;;;;;1.23;0.50;;;22.60;99.90;;;;;;5069619;28;20128;-64
2022/09/01 10:11:47;;;;;;;1.38;0.50;;;22.60;99.90;;;;;;5069587;28;20389;-64
2022/09/01 10:14:20;;;;;;;1.10;0.60;;;22.80;99.90;;;;;;5069119;28;20056;-63
2022/09/01 10:16:57;;;;;;;3.15;0.50;;;22.80;99.90;;;;;;5069748;28;20052;-64
2022/09/01 10:19:26;;;;;;;1.00;0.50;;;22.80;99.90;;;;;;5068958;28;20087;-64
2022/09/01 10:21:52;;;;;;;1.92;0.57;;;22.80;99.90;;;;;;5068535;28;20051;-64
2022/09/01 10:24:28;;;;;;;1.88;0.40;;;22.70;99.90;;;;;;5069180;28;20131;-64
2022/09/01 10:26:59;;;;;;;1.23;0.45;;;22.80;99.90;;;;;;5067670;28;20082;-65
2022/09/01 10:29:39;;;;;;;0.80;0.50;;;22.80;99.90;;;;;;5068797;28;20500;-64
2022/09/01 10:32:09;;;;;;;1.02;0.47;;;22.80;99.90;;;;;;5068181;28;20429;-66
2022/09/01 10:34:36;;;;;;;0.95;0.50;;;22.80;99.90;;;;;;5067935;28;20504;-65
2022/09/01 10:37:05;;;;;;;1.08;0.52;;;22.80;99.90;;;;;;5068439;28;20491;-64
2022/09/01 10:39:31;;;;;;;1.13;0.43;;;22.90;99.90;;;;;;5069139;28;20083;-65
2022/09/01 10:42:06;;;;;;;1.55;0.40;;;23.00;99.90;;;;;;5069450;28;20051;-63
2022/09/01 10:44:37;;;;;;;1.65;0.52;;;23.00;99.90;;;;;;5067904;28;20485;-63
2022/09/01 10:47:10;;;;;;;0.68;0.30;;;23.00;99.90;;;;;;5069341;28;20482;-63
2022/09/01 10:49:45;;;;;;;0.90;0.43;;;23.10;99.90;;;;;;5068683;28;20053;-62
2022/09/01 10:52:54;;;;;;;2.00;0.60;;;23.20;99.90;;;;;;5069356;28;20616;-62
2022/09/01 10:55:25;;;;;;;1.05;0.40;;;23.10;99.90;;;;;;5063127;28;20377;-63
2022/09/01 10:58:27;;;;;;;1.23;0.45;;;23.00;99.90;;;;;;5069389;28;20076;-63
2022/09/01 11:00:53;;;;;;;1.70;0.43;;;22.80;99.90;;;;;;5068492;28;20048;-63
2022/09/01 11:03:20;;;;;;;2.00;0.63;;;22.50;99.90;;;;;;5068946;28;20071;-63
2022/09/01 11:05:59;;;;;;;1.40;1.08;;;22.40;99.90;;;;;;5069056;28;20094;-63
2022/09/01 11:08:27;;;;;;;1.70;0.50;;;22.30;99.90;;;;;;5071523;28;20047;-63
2022/09/01 11:11:14;;;;;;;1.27;0.55;;;22.20;99.90;;;;;;5072774;28;20059;-63
2022/09/01 11:13:48;;;;;;;0.95;0.45;;;22.30;99.90;;;;;;5072373;28;20037;-63
2022/09/01 11:16:37;;;;;;;1.83;0.60;;;22.30;99.90;;;;;;5072250;28;20044;-63
2022/09/01 11:19:40;;;;;;;1.70;0.50;;;22.20;99.90;;;;;;5072126;28;20044;-63
2022/09/01 11:22:12;;;;;;;1.55;0.40;;;22.00;99.90;;;;;;5049730;28;20437;-63
2022/09/01 11:24:40;;;;;;;0.90;0.40;;;22.10;99.90;;;;;;5072177;28;20040;-64
2022/09/01 11:27:08;;;;;;;1.17;0.50;;;22.40;99.90;;;;;;5071671;28;20385;-63
2022/09/01 11:30:09;;;;;;;0.90;0.45;;;22.60;99.90;;;;;;5072675;28;20040;-64
2022/09/01 11:32:37;;;;;;;0.95;0.40;;;22.50;99.90;;;;;;5080786;28;20438;-63
2022/09/01 11:35:06;;;;;;;0.82;0.43;;;22.30;99.90;;;;;;5093751;28;20036;-63
2022/09/01 11:37:32;;;;;;;1.65;0.50;;;22.20;99.90;;;;;;5093639;28;20095;-63
2022/09/01 11:40:06;;;;;;;2.03;0.60;;;22.00;99.90;;;;;;5093675;28;20050;-63
2022/09/01 11:42:39;;;;;;;0.77;0.35;;;21.90;99.90;;;;;;5093124;28;20040;-63
2022/09/01 11:45:18;;;;;;;1.15;0.50;;;21.70;99.90;;;;;;5073657;28;20048;-65
2022/09/01 11:47:50;;;;;;;1.05;0.47;;;21.70;99.90;;;;;;5070466;28;20059;-64
2022/09/01 11:50:27;;;;;;;2.15;0.50;;;21.80;99.90;;;;;;5068161;28;20110;-64
2022/09/01 11:52:57;;;;;;;2.33;0.43;;;22.20;99.90;;;;;;5066629;28;20076;-64
2022/09/01 11:55:38;;;;;;;1.45;0.50;;;22.30;99.90;;;;;;5055854;28;20053;-63
2022/09/01 11:58:05;;;;;;;1.15;0.43;;;22.20;99.90;;;;;;5068937;28;20041;-63
2022/09/01 12:00:38;;;;;;;1.45;0.50;;;22.00;99.90;;;;;;5071995;28;20151;-63
2022/09/01 12:03:28;;;;;;;1.52;0.77;;;22.00;99.90;;;;;;5072878;28;20498;-63
2022/09/01 12:05:59;;;;;;;1.00;0.45;;;22.20;99.90;;;;;;5072273;28;20057;-63
2022/09/01 12:08:28;;;;;;;1.20;0.40;;;22.20;99.90;;;;;;5071604;28;20041;-63
2022/09/01 12:11:23;;;;;;;1.13;0.40;;;22.40;99.90;;;;;;5072143;28;20048;-63
2022/09/01 12:14:08;;;;;;;1.15;0.50;;;22.70;99.90;;;;;;5070739;28;20056;-63
2022/09/01 12:16:38;;;;;;;0.90;0.40;;;22.90;99.90;;;;;;5072705;28;20354;-63
2022/09/01 12:19:05;;;;;;;0.75;0.40;;;23.00;99.90;;;;;;5072219;28;20093;-63
2022/09/01 12:21:41;;;;;;;1.38;0.40;;;23.00;99.90;;;;;;5072268;28;20397;-63
2022/09/01 12:24:12;;;;;;;1.00;0.50;;;23.10;99.90;;;;;;5072413;28;20051;-62
2022/09/01 12:26:39;;;;;;;2.28;0.50;;;22.90;99.90;;;;;;5072427;28;20048;-63
2022/09/01 12:29:05;;;;;;;1.27;0.45;;;22.80;99.90;;;;;;5089541;28;20071;-63
2022/09/01 12:31:32;;;;;;;1.00;0.38;;;22.60;99.90;;;;;;5092662;28;20155;-63
2022/09/01 12:34:00;;;;;;;0.63;0.30;;;22.50;99.90;;;;;;5092498;28;20047;-63
2022/09/01 12:36:35;;;;;;;1.02;0.50;;;22.50;99.90;;;;;;5092471;28;20063;-63
2022/09/01 12:39:34;;;;;;;1.45;0.40;;;22.60;99.90;;;;;;5092656;28;20100;-63
2022/09/01 12:42:23;;;;;;;1.65;0.40;;;22.70;99.90;;;;;;5087574;28;20089;-63
2022/09/01 12:44:57;;;;;;;0.90;0.40;;;22.60;99.90;;;;;;5092000;28;20051;-63
2022/09/01 12:47:32;;;;;;;1.13;0.50;;;22.50;99.90;;;;;;5092096;28;20039;-63
2022/09/01 12:50:03;;;;;;;0.73;0.40;;;22.70;99.90;;;;;;5092347;28;20054;-63
2022/09/01 12:52:35;;;;;;;1.70;0.50;;;23.00;99.90;;;;;;5092459;28;20125;-63
2022/09/01 12:55:02;;;;;;;1.35;0.50;;;23.30;99.90;;;;;;5092380;28;20469;-62
2022/09/01 12:57:31;;;;;;;1.05;0.50;;;23.40;99.90;;;;;;5092211;28;20087;-63
2022/09/01 13:00:08;;;;;;;1.85;0.50;;;23.30;99.90;;;;;;5083008;28;20384;-63
2022/09/01 13:02:37;;;;;;;1.75;0.70;;;23.10;99.90;;;;;;5072019;28;20398;-63
2022/09/01 13:05:25;;;;;;;0.82;0.40;;;22.90;99.90;;;;;;5071607;28;20418;-63
2022/09/01 13:07:55;;;;;;;1.92;0.70;;;22.80;99.90;;;;;;5071486;28;20121;-63
2022/09/01 13:10:23;;;;;;;0.70;0.40;;;22.70;99.90;;;;;;5071607;28;20092;-63
2022/09/01 13:12:50;;;;;;;2.30;0.50;;;22.70;99.90;;;;;;5071439;28;20055;-63
2022/09/01 13:15:17;;;;;;;0.80;0.40;;;22.80;99.90;;;;;;5071531;28;20087;-63